Time;durP1;ratioP1;P1;durP2;ratioP2;P2;SDS_P1;SDS_P2;PMS_P1;PMS_P2;Temp;Humidity;BMP_temperature;BMP_pressure;BME280_temperature;BME280_humidity;BME280_pressure;Samples;Min_cycle;Max_cycle;Signal;HPM_P1;HPM_P2
2022/11/07 00:02:02;;;;;;;0.68;0.55;;;19.00;72.80;;;;;;4997179;28;20483;-18
2022/11/07 00:04:28;;;;;;;0.57;0.45;;;19.00;72.80;;;;;;5015304;28;20069;-18
2022/11/07 00:06:54;;;;;;;0.32;0.32;;;19.00;72.80;;;;;;5014857;28;20049;-20
2022/11/07 00:09:19;;;;;;;0.47;0.47;;;19.00;72.80;;;;;;5005498;28;20038;-18
2022/11/07 00:11:45;;;;;;;0.50;0.50;;;18.90;72.70;;;;;;4993824;28;20042;-17
2022/11/07 00:14:12;;;;;;;0.68;0.43;;;19.00;72.90;;;;;;4998117;28;20137;-20
2022/11/07 00:16:37;;;;;;;0.60;0.50;;;18.90;72.90;;;;;;5012491;28;20136;-19
2022/11/07 00:19:03;;;;;;;0.70;0.40;;;18.90;73.10;;;;;;5012362;28;20129;-19
2022/11/07 00:21:28;;;;;;;0.45;0.45;;;18.90;73.10;;;;;;5010241;28;20045;-18
2022/11/07 00:23:54;;;;;;;0.57;0.38;;;18.90;73.10;;;;;;5009796;28;20510;-18
2022/11/07 00:26:20;;;;;;;0.47;0.47;;;18.90;73.10;;;;;;5014417;28;20037;-18
2022/11/07 00:28:45;;;;;;;0.50;0.40;;;18.90;73.10;;;;;;5008366;28;20037;-18
2022/11/07 00:31:12;;;;;;;0.52;0.43;;;18.90;73.10;;;;;;5011720;28;20107;-19
2022/11/07 00:33:37;;;;;;;0.65;0.50;;;18.90;73.80;;;;;;5014656;28;20072;-17
2022/11/07 00:36:03;;;;;;;0.40;0.40;;;18.90;73.10;;;;;;5003949;28;20129;-18
2022/11/07 00:38:29;;;;;;;1.30;0.40;;;18.80;73.00;;;;;;5007192;28;20092;-18
2022/11/07 00:41:01;;;;;;;0.80;0.60;;;18.90;73.10;;;;;;5015274;28;20456;-18
2022/11/07 00:43:28;;;;;;;0.90;0.30;;;18.90;73.10;;;;;;5011272;28;20094;-18
2022/11/07 00:45:53;;;;;;;0.88;0.40;;;18.80;73.00;;;;;;4995876;28;20049;-18
2022/11/07 00:48:19;;;;;;;0.65;0.45;;;18.80;73.00;;;;;;5010555;28;20041;-18
2022/11/07 00:50:44;;;;;;;0.40;0.30;;;18.80;73.20;;;;;;5027579;28;20550;-18
2022/11/07 00:53:10;;;;;;;0.60;0.50;;;18.80;73.20;;;;;;4994599;28;20039;-19
2022/11/07 00:55:36;;;;;;;0.80;0.50;;;18.80;73.00;;;;;;4994511;28;20534;-18
2022/11/07 00:58:01;;;;;;;0.50;0.30;;;18.80;73.10;;;;;;5008985;28;20080;-18
2022/11/07 01:00:27;;;;;;;0.77;0.60;;;18.80;74.00;;;;;;5011944;28;20052;-18
2022/11/07 01:05:37;;;;;;;0.68;0.43;;;18.80;73.00;;;;;;5009503;28;20630;-19
2022/11/07 01:08:03;;;;;;;1.65;0.60;;;18.80;73.20;;;;;;5012949;28;20521;-18
2022/11/07 01:10:28;;;;;;;1.10;0.43;;;18.80;73.20;;;;;;5014202;28;20075;-18
2022/11/07 01:12:54;;;;;;;0.80;0.60;;;18.80;73.20;;;;;;5009372;28;20419;-17
2022/11/07 01:15:19;;;;;;;0.95;0.50;;;18.80;73.50;;;;;;5012304;28;20050;-18
2022/11/07 01:17:45;;;;;;;0.60;0.30;;;18.80;73.20;;;;;;5022760;28;20041;-16
2022/11/07 01:20:11;;;;;;;0.50;0.47;;;18.80;73.90;;;;;;5009800;28;20330;-17
2022/11/07 01:22:36;;;;;;;0.77;0.45;;;18.80;74.00;;;;;;5014560;28;20121;-18
2022/11/07 01:25:02;;;;;;;0.50;0.30;;;18.80;73.20;;;;;;5005226;28;20069;-18
2022/11/07 01:27:28;;;;;;;0.47;0.40;;;18.70;73.30;;;;;;5005075;28;20047;-18
2022/11/07 01:29:54;;;;;;;0.70;0.40;;;18.70;73.40;;;;;;5012838;28;20065;-17
2022/11/07 01:32:19;;;;;;;0.70;0.40;;;18.70;73.40;;;;;;5010005;28;20049;-18
2022/11/07 01:34:45;;;;;;;1.65;0.38;;;18.70;73.40;;;;;;5010714;28;20467;-18
2022/11/07 01:37:10;;;;;;;0.90;0.55;;;18.70;73.30;;;;;;5012530;28;20045;-18
2022/11/07 01:39:36;;;;;;;1.10;0.52;;;18.70;73.30;;;;;;5012662;28;20410;-18
2022/11/07 01:42:02;;;;;;;3.95;0.73;;;18.70;73.30;;;;;;5005904;28;20117;-17
2022/11/07 01:44:27;;;;;;;0.50;0.30;;;18.70;73.50;;;;;;5012354;28;20044;-19
2022/11/07 01:46:55;;;;;;;0.90;0.50;;;18.70;73.40;;;;;;5010138;28;20041;-18
2022/11/07 01:49:26;;;;;;;0.77;0.43;;;18.70;73.40;;;;;;5011858;28;20049;-18
2022/11/07 01:51:57;;;;;;;0.95;0.50;;;18.70;73.40;;;;;;5005956;28;20465;-18
2022/11/07 01:54:25;;;;;;;1.35;0.47;;;18.70;73.40;;;;;;5008778;28;20037;-18
2022/11/07 01:56:51;;;;;;;0.80;0.50;;;18.70;73.60;;;;;;5009146;28;20064;-19
2022/11/07 01:59:18;;;;;;;0.90;0.63;;;18.70;74.20;;;;;;5005129;28;20041;-18
2022/11/07 02:01:44;;;;;;;0.45;0.30;;;18.70;73.50;;;;;;5015231;28;20046;-18
2022/11/07 02:04:09;;;;;;;0.63;0.50;;;18.70;74.20;;;;;;4995379;28;20132;-18
2022/11/07 02:06:45;;;;;;;1.00;0.43;;;18.70;73.40;;;;;;5007746;28;20077;-18
2022/11/07 02:09:11;;;;;;;0.65;0.43;;;18.70;73.40;;;;;;5012547;28;20132;-18
2022/11/07 02:11:36;;;;;;;0.45;0.30;;;18.70;73.40;;;;;;4993594;28;20149;-18
2022/11/07 02:14:02;;;;;;;0.93;0.68;;;18.70;73.40;;;;;;4993066;28;20042;-18
2022/11/07 02:16:28;;;;;;;0.55;0.35;;;18.70;73.30;;;;;;4995307;28;20487;-18
2022/11/07 02:18:53;;;;;;;0.63;0.30;;;18.70;73.30;;;;;;4991519;28;20052;-17
2022/11/07 02:21:26;;;;;;;0.85;0.60;;;18.70;73.40;;;;;;4992171;28;20050;-18
2022/11/07 02:24:10;;;;;;;0.85;0.47;;;18.70;73.30;;;;;;4996373;28;20518;-18
2022/11/07 02:26:36;;;;;;;0.73;0.55;;;18.70;73.40;;;;;;5007015;28;20052;-18
2022/11/07 02:29:04;;;;;;;0.55;0.30;;;18.60;73.80;;;;;;5046189;28;20120;-18
2022/11/07 02:31:29;;;;;;;0.55;0.38;;;18.70;73.40;;;;;;5012348;28;20057;-19
2022/11/07 02:33:55;;;;;;;0.63;0.50;;;18.70;73.40;;;;;;5009394;28;20481;-18
2022/11/07 02:36:21;;;;;;;0.20;0.20;;;18.70;73.20;;;;;;4998077;28;20376;-18
2022/11/07 02:38:48;;;;;;;0.68;0.40;;;18.70;73.20;;;;;;5009093;28;20038;-18
2022/11/07 02:41:18;;;;;;;0.60;0.47;;;18.70;73.30;;;;;;4999837;28;20121;-18
2022/11/07 02:43:48;;;;;;;1.08;0.47;;;18.70;73.20;;;;;;5026697;28;20047;-17
2022/11/07 02:46:14;;;;;;;0.90;0.38;;;18.70;73.30;;;;;;5002244;28;20046;-18
2022/11/07 02:48:45;;;;;;;0.68;0.65;;;18.70;73.20;;;;;;4991785;28;20050;-18
2022/11/07 02:51:10;;;;;;;0.80;0.52;;;18.60;73.30;;;;;;4988986;28;20054;-17
2022/11/07 02:53:36;;;;;;;0.63;0.30;;;18.60;73.30;;;;;;4993835;28;20042;-18
2022/11/07 02:56:02;;;;;;;1.75;0.50;;;18.60;73.20;;;;;;5006935;28;20045;-17
2022/11/07 02:58:27;;;;;;;0.40;0.40;;;18.60;73.30;;;;;;4991849;28;20484;-18
2022/11/07 03:00:53;;;;;;;0.55;0.38;;;18.60;73.30;;;;;;4993060;28;20038;-17
2022/11/07 03:03:18;;;;;;;0.80;0.32;;;18.60;73.40;;;;;;4993895;28;20062;-19
2022/11/07 03:05:44;;;;;;;0.43;0.40;;;18.60;73.40;;;;;;5004374;28;20073;-18
2022/11/07 03:08:09;;;;;;;0.90;0.40;;;18.60;73.30;;;;;;5019419;28;20391;-18
2022/11/07 03:10:35;;;;;;;0.77;0.40;;;18.60;73.40;;;;;;5005301;28;20035;-18
2022/11/07 03:13:01;;;;;;;0.88;0.52;;;18.60;73.40;;;;;;4994124;28;20057;-17
2022/11/07 03:15:26;;;;;;;0.45;0.30;;;18.60;73.40;;;;;;4995589;28;20423;-18
2022/11/07 03:17:52;;;;;;;0.95;0.55;;;18.70;73.00;;;;;;4991480;28;20950;-16
2022/11/07 03:20:17;;;;;;;0.52;0.40;;;18.70;73.00;;;;;;4993274;28;20046;-18
2022/11/07 03:22:43;;;;;;;0.90;0.50;;;18.70;73.10;;;;;;4992434;28;20092;-20
2022/11/07 03:25:09;;;;;;;0.30;0.28;;;18.70;73.00;;;;;;5002941;28;20035;-18
2022/11/07 03:27:34;;;;;;;0.40;0.20;;;18.70;73.00;;;;;;4994141;28;20412;-19
2022/11/07 03:30:00;;;;;;;0.82;0.30;;;18.70;72.90;;;;;;4990671;28;20074;-17
2022/11/07 03:32:25;;;;;;;0.60;0.30;;;18.70;72.90;;;;;;4992465;28;20136;-18
2022/11/07 03:34:51;;;;;;;1.48;0.40;;;18.70;72.90;;;;;;4991165;28;20042;-18
2022/11/07 03:37:16;;;;;;;1.00;0.80;;;18.70;72.80;;;;;;4990183;28;20050;-18
2022/11/07 03:39:42;;;;;;;0.30;0.30;;;18.70;72.80;;;;;;4993202;28;20463;-18
2022/11/07 03:42:08;;;;;;;1.00;0.50;;;18.70;72.80;;;;;;4996973;28;20107;-18
2022/11/07 03:44:33;;;;;;;0.70;0.43;;;18.70;73.00;;;;;;4993522;28;20046;-18
2022/11/07 03:46:59;;;;;;;0.77;0.30;;;18.60;72.90;;;;;;4998568;28;20065;-17
2022/11/07 03:49:24;;;;;;;1.15;0.40;;;18.60;73.00;;;;;;5013611;28;20699;-18
2022/11/07 03:51:50;;;;;;;0.45;0.30;;;18.70;73.00;;;;;;5012445;28;20104;-18
2022/11/07 03:54:15;;;;;;;1.90;0.50;;;18.60;73.00;;;;;;5016080;28;20053;-18
2022/11/07 03:56:41;;;;;;;0.47;0.30;;;18.60;73.20;;;;;;5007515;28;20038;-17
2022/11/07 03:59:06;;;;;;;0.70;0.30;;;18.60;73.00;;;;;;5007664;28;20046;-18
2022/11/07 04:01:32;;;;;;;0.50;0.35;;;18.70;73.00;;;;;;5008573;28;20506;-17
2022/11/07 04:03:58;;;;;;;0.70;0.35;;;18.60;72.90;;;;;;5013144;28;20052;-19
2022/11/07 04:06:23;;;;;;;1.38;0.50;;;18.60;73.80;;;;;;5006582;28;20573;-18
2022/11/07 04:08:49;;;;;;;0.60;0.52;;;18.60;73.10;;;;;;4995951;28;20066;-22
2022/11/07 04:17:17;;;;;;;0.50;0.40;;;18.60;73.20;;;;;;4993488;28;20054;-18
2022/11/07 04:19:28;;;;;;;0.52;0.22;;;18.60;73.10;;;;;;5008977;28;20049;-19
2022/11/07 04:21:54;;;;;;;0.60;0.30;;;18.60;73.00;;;;;;4996841;28;20046;-18
2022/11/07 04:24:19;;;;;;;0.73;0.20;;;18.60;72.90;;;;;;4994835;28;20038;-18
2022/11/07 04:29:29;;;;;;;1.88;0.52;;;18.70;73.00;;;;;;4998582;28;20073;-18
2022/11/07 04:31:54;;;;;;;0.77;0.30;;;18.60;73.10;;;;;;4994467;28;20500;-21
2022/11/07 04:34:20;;;;;;;1.05;0.43;;;18.60;72.90;;;;;;4994812;28;20120;-18
2022/11/07 04:36:46;;;;;;;0.40;0.30;;;18.60;72.90;;;;;;5008983;28;20041;-18
2022/11/07 04:39:11;;;;;;;0.82;0.60;;;18.60;72.90;;;;;;5007128;28;20045;-19
2022/11/07 04:41:37;;;;;;;0.65;0.40;;;18.60;72.90;;;;;;4997269;28;20117;-18
2022/11/07 04:44:02;;;;;;;0.45;0.30;;;18.60;73.00;;;;;;4991628;28;20458;-17
2022/11/07 04:46:28;;;;;;;0.80;0.38;;;18.60;72.90;;;;;;4998861;28;20104;-18
2022/11/07 04:48:53;;;;;;;0.43;0.38;;;18.60;72.90;;;;;;5002801;28;20046;-19
2022/11/07 04:51:20;;;;;;;0.45;0.25;;;18.60;73.00;;;;;;5009012;28;20549;-18
2022/11/07 04:53:45;;;;;;;0.50;0.40;;;18.60;72.90;;;;;;5024536;28;20041;-19
2022/11/07 04:56:11;;;;;;;0.60;0.20;;;18.60;73.10;;;;;;4999110;28;20060;-19
2022/11/07 04:58:37;;;;;;;0.95;0.40;;;18.60;73.00;;;;;;5006533;28;20088;-18
2022/11/07 05:01:02;;;;;;;0.57;0.20;;;18.60;73.10;;;;;;5012087;28;20037;-18
2022/11/07 05:03:28;;;;;;;0.70;0.30;;;18.60;72.90;;;;;;5014953;28;20038;-19
2022/11/07 05:05:53;;;;;;;0.60;0.40;;;18.60;72.90;;;;;;5002547;28;20122;-18
2022/11/07 05:08:19;;;;;;;0.20;0.17;;;18.60;73.70;;;;;;4997261;28;20038;-18
2022/11/07 05:10:44;;;;;;;0.50;0.30;;;18.60;72.90;;;;;;5007922;28;20045;-18
2022/11/07 05:13:10;;;;;;;0.40;0.20;;;18.60;73.00;;;;;;5004074;28;20475;-18
2022/11/07 05:15:36;;;;;;;0.20;0.20;;;18.60;72.90;;;;;;4993639;28;20038;-18
2022/11/07 05:18:01;;;;;;;0.57;0.30;;;18.60;72.90;;;;;;4992028;28;20043;-18
2022/11/07 05:20:34;;;;;;;0.52;0.40;;;18.70;72.70;;;;;;4993641;28;20039;-18
2022/11/07 05:23:17;;;;;;;0.57;0.40;;;18.60;72.90;;;;;;4994669;28;20042;-17
2022/11/07 05:25:47;;;;;;;0.65;0.55;;;18.60;72.90;;;;;;5007488;28;20046;-18
2022/11/07 05:28:18;;;;;;;0.60;0.40;;;18.60;72.90;;;;;;5006503;28;20053;-18
2022/11/07 05:30:44;;;;;;;0.60;0.30;;;18.60;72.90;;;;;;4994146;28;20050;-18
2022/11/07 05:33:10;;;;;;;0.30;0.20;;;18.60;73.10;;;;;;4994166;28;20503;-17
2022/11/07 05:35:36;;;;;;;1.00;0.47;;;18.60;72.90;;;;;;4992491;28;20100;-19
2022/11/07 05:38:02;;;;;;;0.35;0.20;;;18.60;73.00;;;;;;4997109;28;20494;-18
2022/11/07 05:40:27;;;;;;;0.30;0.20;;;18.60;72.90;;;;;;5000998;28;20058;-18
2022/11/07 05:42:59;;;;;;;0.30;0.28;;;18.60;72.90;;;;;;5010951;28;20532;-19
2022/11/07 05:45:25;;;;;;;0.40;0.20;;;18.60;72.80;;;;;;4999746;28;20042;-18
2022/11/07 05:48:02;;;;;;;0.90;0.45;;;18.60;72.80;;;;;;4997060;28;20088;-20
2022/11/07 05:50:28;;;;;;;0.93;0.45;;;18.60;72.80;;;;;;5009008;28;20058;-19
2022/11/07 05:52:53;;;;;;;0.60;0.50;;;18.60;73.50;;;;;;4997760;28;20042;-19
2022/11/07 05:55:19;;;;;;;0.40;0.20;;;18.60;73.50;;;;;;5001307;28;20408;-21
2022/11/07 05:57:45;;;;;;;0.50;0.40;;;18.60;72.90;;;;;;5008677;28;20042;-19
2022/11/07 06:00:11;;;;;;;0.40;0.30;;;18.60;72.90;;;;;;5007783;28;20033;-19
2022/11/07 06:02:36;;;;;;;0.38;0.20;;;18.60;72.90;;;;;;5011919;28;20033;-20
2022/11/07 06:05:02;;;;;;;0.68;0.47;;;18.60;72.70;;;;;;5010024;28;20042;-18
2022/11/07 06:07:28;;;;;;;0.60;0.40;;;18.60;72.80;;;;;;5010281;28;20554;-21
2022/11/07 06:09:53;;;;;;;0.50;0.25;;;18.60;72.70;;;;;;5004680;28;20105;-20
2022/11/07 06:12:19;;;;;;;0.50;0.50;;;18.60;72.50;;;;;;4995705;28;20074;-19
2022/11/07 06:14:44;;;;;;;0.68;0.30;;;18.70;72.30;;;;;;5011326;28;20042;-19
2022/11/07 06:17:10;;;;;;;1.27;0.50;;;18.60;72.60;;;;;;5010803;28;20030;-19
2022/11/07 06:19:36;;;;;;;1.30;0.63;;;18.60;73.30;;;;;;5010434;28;20038;-19
2022/11/07 06:22:01;;;;;;;0.40;0.40;;;18.60;72.60;;;;;;5010157;28;20026;-19
2022/11/07 06:24:27;;;;;;;0.43;0.38;;;18.60;72.60;;;;;;4989224;28;20514;-19
2022/11/07 06:26:53;;;;;;;0.93;0.50;;;18.60;72.60;;;;;;5019688;28;20049;-25
2022/11/07 06:29:18;;;;;;;1.17;0.47;;;18.60;72.60;;;;;;5010314;28;20568;-20
2022/11/07 06:31:44;;;;;;;0.40;0.20;;;18.60;72.70;;;;;;5014705;28;20088;-19
2022/11/07 06:34:10;;;;;;;0.38;0.38;;;18.60;72.70;;;;;;5002384;28;20046;-19
2022/11/07 06:36:35;;;;;;;0.30;0.30;;;18.60;73.40;;;;;;5013240;28;20042;-19
2022/11/07 06:39:01;;;;;;;0.80;0.50;;;18.60;72.50;;;;;;5012363;28;20053;-20
2022/11/07 06:41:26;;;;;;;0.77;0.38;;;18.60;72.80;;;;;;4999232;28;20038;-14
2022/11/07 06:43:52;;;;;;;0.68;0.35;;;18.60;72.70;;;;;;5012958;28;20186;-14
2022/11/07 06:46:18;;;;;;;0.40;0.20;;;18.60;73.50;;;;;;4654233;28;9999790;-14
2022/11/07 06:48:45;;;;;;;0.47;0.47;;;18.60;73.40;;;;;;4999327;28;20656;-14
2022/11/07 06:51:10;;;;;;;0.30;0.20;;;18.60;72.90;;;;;;4985880;28;20046;-15
2022/11/07 06:53:36;;;;;;;0.45;0.45;;;18.60;72.60;;;;;;4987662;28;20072;-14
2022/11/07 06:56:03;;;;;;;0.40;0.25;;;18.60;72.30;;;;;;5010222;28;20066;-14
2022/11/07 06:58:28;;;;;;;0.90;0.30;;;18.60;72.70;;;;;;5004654;28;20107;-14
2022/11/07 07:01:02;;;;;;;0.40;0.30;;;18.60;72.50;;;;;;5007118;28;20323;-14
2022/11/07 07:03:28;;;;;;;0.47;0.40;;;18.60;72.30;;;;;;5007630;28;20073;-14
2022/11/07 07:05:53;;;;;;;0.63;0.40;;;18.70;72.50;;;;;;5006259;28;20532;-14
2022/11/07 07:08:19;;;;;;;0.60;0.30;;;18.80;72.20;;;;;;4993023;28;20133;-14
2022/11/07 07:10:45;;;;;;;0.45;0.45;;;18.80;72.00;;;;;;4994070;28;20046;-13
2022/11/07 07:13:11;;;;;;;0.52;0.30;;;18.80;72.00;;;;;;4992045;28;20042;-14
2022/11/07 07:15:36;;;;;;;0.40;0.20;;;18.80;71.80;;;;;;4989922;28;20129;-14
2022/11/07 07:18:02;;;;;;;0.60;0.30;;;19.10;72.10;;;;;;4986297;28;20095;-14
2022/11/07 07:20:29;;;;;;;0.52;0.30;;;19.30;70.50;;;;;;5002368;28;20049;-14
2022/11/07 07:22:54;;;;;;;0.60;0.43;;;19.10;70.70;;;;;;5012763;28;20263;-14
2022/11/07 07:25:20;;;;;;;0.50;0.30;;;19.00;71.30;;;;;;4992900;28;20557;-14
2022/11/07 07:27:45;;;;;;;1.35;0.25;;;19.10;70.90;;;;;;5008149;28;20045;-15
2022/11/07 07:30:12;;;;;;;0.70;0.32;;;19.30;70.10;;;;;;5002844;28;20054;-15
2022/11/07 07:32:37;;;;;;;0.75;0.30;;;19.20;70.50;;;;;;5017318;28;20103;-14
2022/11/07 07:35:03;;;;;;;0.60;0.50;;;19.00;71.10;;;;;;5008469;28;20053;-16
2022/11/07 07:37:29;;;;;;;0.40;0.30;;;18.90;72.20;;;;;;5020993;28;20400;-14
2022/11/07 07:39:54;;;;;;;0.88;0.32;;;18.90;72.40;;;;;;4994875;28;20046;-15
2022/11/07 07:42:20;;;;;;;0.77;0.40;;;18.80;71.80;;;;;;4997117;28;22914;-14
2022/11/07 07:44:45;;;;;;;0.98;0.28;;;18.70;71.90;;;;;;5006692;28;20043;-14
2022/11/07 07:47:11;;;;;;;0.45;0.30;;;18.70;71.90;;;;;;5019022;28;20042;-14
2022/11/07 07:49:37;;;;;;;0.85;0.47;;;18.70;72.20;;;;;;5015357;28;20434;-14
2022/11/07 07:52:02;;;;;;;0.47;0.30;;;18.70;72.10;;;;;;5022666;28;20126;-14
2022/11/07 07:54:28;;;;;;;0.50;0.30;;;18.70;72.10;;;;;;5014301;28;20069;-14
2022/11/07 07:56:54;;;;;;;2.15;0.40;;;18.80;72.30;;;;;;5016420;28;20508;-14
2022/11/07 07:59:19;;;;;;;2.03;0.32;;;18.80;71.70;;;;;;5006391;28;20065;-14
2022/11/07 08:01:45;;;;;;;0.90;0.55;;;18.80;71.90;;;;;;4998109;28;20033;-17
2022/11/07 08:04:10;;;;;;;0.43;0.30;;;18.80;72.10;;;;;;4997918;28;20090;-16
2022/11/07 08:06:36;;;;;;;1.27;0.30;;;18.70;72.50;;;;;;4994533;28;20034;-14
2022/11/07 08:09:03;;;;;;;0.40;0.35;;;18.60;72.60;;;;;;4997736;28;20491;-16
2022/11/07 08:11:28;;;;;;;0.40;0.20;;;18.60;72.80;;;;;;4996323;28;20026;-14
2022/11/07 08:13:54;;;;;;;0.82;0.30;;;18.60;72.90;;;;;;4995028;28;20065;-14
2022/11/07 08:16:19;;;;;;;0.73;0.40;;;18.60;72.90;;;;;;4994512;28;20115;-28
2022/11/07 08:18:45;;;;;;;0.40;0.40;;;18.60;73.00;;;;;;4995169;28;20089;-14
2022/11/07 08:21:11;;;;;;;0.30;0.30;;;18.50;73.30;;;;;;5000323;28;20049;-20
2022/11/07 08:23:36;;;;;;;2.13;0.30;;;18.50;73.30;;;;;;5005195;28;20030;-14
2022/11/07 08:26:03;;;;;;;1.05;0.40;;;18.50;73.30;;;;;;5008321;28;20034;-14
2022/11/07 08:28:30;;;;;;;0.20;0.20;;;18.50;73.30;;;;;;5014920;28;20503;-22
2022/11/07 08:30:56;;;;;;;0.70;0.38;;;18.50;73.20;;;;;;5010159;28;20111;-14
2022/11/07 08:33:22;;;;;;;0.50;0.40;;;18.50;73.40;;;;;;5013656;28;20029;-19
2022/11/07 08:35:47;;;;;;;1.30;0.30;;;18.50;73.50;;;;;;5010396;28;20077;-14
2022/11/07 08:38:13;;;;;;;2.33;0.35;;;18.50;73.40;;;;;;5013077;28;20038;-15
2022/11/07 08:40:39;;;;;;;0.70;0.40;;;18.50;73.40;;;;;;5010671;28;20048;-14
2022/11/07 08:43:04;;;;;;;1.55;0.60;;;18.50;73.50;;;;;;5008624;28;20549;-14
2022/11/07 08:45:30;;;;;;;0.63;0.28;;;18.50;73.40;;;;;;5013142;28;20038;-15
2022/11/07 08:47:56;;;;;;;1.48;0.40;;;18.50;73.20;;;;;;5014729;28;20046;-15
2022/11/07 08:50:22;;;;;;;0.55;0.40;;;18.50;73.40;;;;;;5011919;28;20544;-14
2022/11/07 08:52:48;;;;;;;0.30;0.28;;;18.50;73.40;;;;;;5008382;28;20065;-14
2022/11/07 08:55:13;;;;;;;0.50;0.30;;;18.50;74.10;;;;;;5004563;28;20033;-17
2022/11/07 08:57:39;;;;;;;0.30;0.20;;;18.50;73.40;;;;;;5005463;28;20124;-15
2022/11/07 09:00:05;;;;;;;0.88;0.38;;;18.50;73.30;;;;;;5009295;28;20034;-14
2022/11/07 09:02:31;;;;;;;0.98;0.50;;;18.50;73.30;;;;;;5007540;28;20100;-15
2022/11/07 09:04:56;;;;;;;0.82;0.25;;;18.50;73.20;;;;;;5012701;28;20067;-21
2022/11/07 09:07:22;;;;;;;1.55;0.40;;;18.50;73.20;;;;;;5012648;28;20041;-14
2022/11/07 09:09:47;;;;;;;1.02;0.40;;;18.50;72.80;;;;;;5002360;28;20051;-17
2022/11/07 09:12:13;;;;;;;0.45;0.35;;;18.60;72.90;;;;;;4994905;28;20042;-14
2022/11/07 09:14:38;;;;;;;0.38;0.28;;;18.60;72.90;;;;;;4999259;28;20483;-15
2022/11/07 09:17:04;;;;;;;0.45;0.40;;;18.60;72.70;;;;;;4997993;28;20050;-14
2022/11/07 09:19:30;;;;;;;0.20;0.15;;;18.60;72.80;;;;;;5003798;28;20045;-14
2022/11/07 09:21:56;;;;;;;1.50;0.40;;;18.60;72.70;;;;;;5012511;28;20511;-14
2022/11/07 09:24:21;;;;;;;0.52;0.38;;;18.70;72.50;;;;;;4997751;28;20399;-14
2022/11/07 09:26:47;;;;;;;0.45;0.30;;;18.70;72.40;;;;;;5015578;28;20034;-15
2022/11/07 09:29:12;;;;;;;0.32;0.30;;;18.70;72.30;;;;;;5001337;28;20034;-14
2022/11/07 09:31:38;;;;;;;0.38;0.30;;;18.80;71.80;;;;;;5005535;28;20158;-14
2022/11/07 09:34:06;;;;;;;0.88;0.30;;;18.90;71.50;;;;;;5006893;28;20033;-14
2022/11/07 09:36:31;;;;;;;0.32;0.30;;;18.80;71.70;;;;;;4994721;28;20042;-14
2022/11/07 09:38:58;;;;;;;0.70;0.50;;;18.90;71.70;;;;;;4998758;28;20096;-14
2022/11/07 09:41:36;;;;;;;1.52;0.40;;;18.90;71.70;;;;;;5009471;28;20406;-14
2022/11/07 09:44:10;;;;;;;1.30;0.40;;;18.80;71.70;;;;;;5009326;28;20058;-15
2022/11/07 09:47:08;;;;;;;;;;;18.80;71.90;;;;;;5009287;28;20092;-14
2022/11/07 09:49:38;;;;;;;0.60;0.40;;;18.80;71.70;;;;;;5031662;28;19921;-14
2022/11/07 09:52:37;;;;;;;1.10;0.20;;;18.90;71.50;;;;;;5038142;28;20117;-14
2022/11/07 09:55:19;;;;;;;1.70;0.50;;;19.10;71.20;;;;;;5003544;28;20056;-14
2022/11/07 09:57:45;;;;;;;0.90;0.50;;;19.10;71.10;;;;;;5016801;28;20060;-14
2022/11/07 10:00:17;;;;;;;0.52;0.30;;;19.00;71.30;;;;;;5032972;28;20513;-14
2022/11/07 10:02:48;;;;;;;0.45;0.20;;;18.90;71.50;;;;;;4998609;28;20092;-15
2022/11/07 10:05:20;;;;;;;0.47;0.28;;;19.00;71.40;;;;;;5034050;28;20025;-14
2022/11/07 10:07:58;;;;;;;0.40;0.25;;;19.10;70.90;;;;;;5035508;28;20115;-18
2022/11/07 10:10:24;;;;;;;0.30;0.30;;;19.30;70.10;;;;;;5030818;28;20053;-14
2022/11/07 10:12:55;;;;;;;0.30;0.20;;;19.40;69.80;;;;;;5030492;28;20099;-14
2022/11/07 10:15:40;;;;;;;0.57;0.30;;;19.40;69.90;;;;;;5033353;28;20036;-14
2022/11/07 10:18:27;;;;;;;0.77;0.40;;;19.50;70.00;;;;;;5032888;28;20113;-14
2022/11/07 10:21:22;;;;;;;1.08;0.20;;;19.30;70.00;;;;;;5014453;28;20033;-14
2022/11/07 10:24:10;;;;;;;0.95;0.40;;;19.30;70.40;;;;;;5017061;28;20049;-15
2022/11/07 10:26:36;;;;;;;0.40;0.35;;;19.30;70.40;;;;;;4992072;28;20124;-14
2022/11/07 10:29:15;;;;;;;0.50;0.38;;;19.20;70.70;;;;;;4993061;28;20451;-14
2022/11/07 10:31:47;;;;;;;1.02;0.20;;;19.30;70.10;;;;;;4990956;28;20045;-14
2022/11/07 10:34:28;;;;;;;0.45;0.32;;;19.20;70.70;;;;;;5010015;28;20053;-15
2022/11/07 10:36:54;;;;;;;0.52;0.30;;;19.10;71.00;;;;;;5008221;28;20128;-15
2022/11/07 10:39:19;;;;;;;0.77;0.35;;;19.10;71.30;;;;;;4995271;28;20121;-17
2022/11/07 10:41:57;;;;;;;0.35;0.20;;;19.10;70.90;;;;;;4994124;28;20034;-14
2022/11/07 10:44:26;;;;;;;0.57;0.20;;;19.00;71.20;;;;;;4991969;28;20121;-14
2022/11/07 10:46:51;;;;;;;0.60;0.22;;;19.00;71.20;;;;;;4992342;28;20176;-14
2022/11/07 10:49:25;;;;;;;0.88;0.30;;;19.00;71.40;;;;;;4995004;28;20121;-14
2022/11/07 10:51:51;;;;;;;0.60;0.32;;;19.00;71.50;;;;;;4991628;28;20039;-15
2022/11/07 10:54:27;;;;;;;0.50;0.30;;;19.00;71.70;;;;;;5006737;28;20038;-14
2022/11/07 10:57:08;;;;;;;0.77;0.47;;;19.00;71.70;;;;;;5015746;28;20047;-14
2022/11/07 10:59:35;;;;;;;0.68;0.20;;;19.00;71.40;;;;;;5021403;28;20073;-14
2022/11/07 11:02:00;;;;;;;0.50;0.40;;;19.00;71.50;;;;;;5004454;28;20057;-14
2022/11/07 11:04:28;;;;;;;0.63;0.30;;;19.00;71.50;;;;;;4995582;28;20049;-14
2022/11/07 11:07:04;;;;;;;1.20;0.50;;;19.00;71.50;;;;;;5012432;28;20065;-15
2022/11/07 11:09:33;;;;;;;0.30;0.30;;;19.00;71.60;;;;;;5000871;28;20041;-14
2022/11/07 11:12:32;;;;;;;1.17;0.63;;;19.00;71.40;;;;;;5011773;28;20042;-15
2022/11/07 11:15:14;;;;;;;0.35;0.30;;;19.00;71.30;;;;;;5017595;28;20426;-20
2022/11/07 11:17:40;;;;;;;0.30;0.30;;;19.00;71.30;;;;;;5021109;28;20056;-14
2022/11/07 11:20:27;;;;;;;0.52;0.30;;;19.00;71.60;;;;;;5008405;28;20585;-15
2022/11/07 11:22:52;;;;;;;0.80;0.40;;;19.00;71.60;;;;;;5000830;28;20077;-14
2022/11/07 11:25:19;;;;;;;0.68;0.30;;;19.00;72.60;;;;;;5010889;28;20066;-14
2022/11/07 11:27:45;;;;;;;0.50;0.30;;;19.00;71.80;;;;;;4997810;28;20100;-19
2022/11/07 11:30:16;;;;;;;0.57;0.30;;;18.90;71.70;;;;;;4998142;28;20046;-14
2022/11/07 11:32:44;;;;;;;0.82;0.20;;;18.90;71.60;;;;;;5000995;28;20049;-16
2022/11/07 11:35:22;;;;;;;0.80;0.55;;;18.90;71.70;;;;;;5014214;28;20125;-16
2022/11/07 11:37:51;;;;;;;0.93;0.22;;;18.90;71.70;;;;;;4997630;28;20589;-14
2022/11/07 11:40:18;;;;;;;0.95;0.55;;;18.90;71.70;;;;;;5014203;28;20046;-14
2022/11/07 11:42:52;;;;;;;0.45;0.40;;;18.90;71.80;;;;;;5019160;28;20053;-14
2022/11/07 11:45:20;;;;;;;0.57;0.40;;;18.90;71.80;;;;;;5006973;28;20042;-15
2022/11/07 11:47:59;;;;;;;0.82;0.35;;;18.90;71.80;;;;;;5002913;28;20064;-14
2022/11/07 11:50:42;;;;;;;0.52;0.50;;;18.90;71.70;;;;;;4997945;28;20052;-15
2022/11/07 11:53:17;;;;;;;1.25;0.47;;;18.90;71.80;;;;;;4998634;28;20097;-21
2022/11/07 11:56:02;;;;;;;0.40;0.30;;;18.90;71.60;;;;;;4996228;28;21146;-15
2022/11/07 11:58:42;;;;;;;;;;;19.00;71.80;;;;;;4999875;28;20050;-14
2022/11/07 12:01:21;;;;;;;0.55;0.35;;;18.90;71.50;;;;;;5000740;28;20311;-16
2022/11/07 12:03:55;;;;;;;0.60;0.40;;;19.00;71.60;;;;;;4997315;28;20061;-14
2022/11/07 12:06:33;;;;;;;0.47;0.20;;;19.00;71.60;;;;;;5000089;28;20095;-14
2022/11/07 12:09:05;;;;;;;0.43;0.38;;;19.00;71.50;;;;;;4994412;28;20128;-14
2022/11/07 12:12:16;;;;;;;0.28;0.20;;;19.10;71.20;;;;;;4996800;28;20510;-14
2022/11/07 12:14:58;;;;;;;0.75;0.38;;;19.00;71.30;;;;;;4996916;28;20049;-14
2022/11/07 12:17:24;;;;;;;0.38;0.30;;;19.00;72.20;;;;;;4995791;28;20052;-14
2022/11/07 12:19:55;;;;;;;0.60;0.38;;;19.00;71.30;;;;;;5007467;28;20524;-15
2022/11/07 12:22:43;;;;;;;0.68;0.30;;;19.00;71.30;;;;;;5028427;28;20050;-15
2022/11/07 12:25:19;;;;;;;0.68;0.30;;;19.00;71.30;;;;;;5020131;28;20129;-15
2022/11/07 12:27:50;;;;;;;0.45;0.35;;;19.00;71.40;;;;;;5009025;28;20534;-24
2022/11/07 12:30:32;;;;;;;0.55;0.30;;;19.00;71.40;;;;;;5011712;28;20095;-14
2022/11/07 12:33:00;;;;;;;0.50;0.47;;;19.00;71.30;;;;;;5008466;28;20073;-14
2022/11/07 12:35:47;;;;;;;0.57;0.30;;;19.00;71.30;;;;;;5009874;28;20490;-17
2022/11/07 12:38:40;;;;;;;0.52;0.30;;;19.10;71.00;;;;;;5004631;28;20050;-15
2022/11/07 12:41:23;;;;;;;0.28;0.22;;;19.10;71.10;;;;;;5008052;28;20046;-42
2022/11/07 12:44:18;;;;;;;0.40;0.40;;;19.10;71.30;;;;;;5013757;28;20053;-41
2022/11/07 12:46:56;;;;;;;0.43;0.35;;;19.10;71.00;;;;;;5029644;28;20041;-41
2022/11/07 12:49:37;;;;;;;0.73;0.50;;;19.10;71.00;;;;;;5009643;28;20096;-41
2022/11/07 12:52:40;;;;;;;0.57;0.35;;;19.10;71.10;;;;;;4995010;28;20038;-39
2022/11/07 12:55:28;;;;;;;0.40;0.40;;;19.10;71.50;;;;;;4989438;28;20053;-44
2022/11/07 12:57:54;;;;;;;0.82;0.55;;;19.10;71.40;;;;;;4998221;28;20048;-41
2022/11/07 13:00:26;;;;;;;0.65;0.40;;;19.30;71.20;;;;;;5011423;28;20417;-40
2022/11/07 13:03:16;;;;;;;0.57;0.50;;;19.50;70.50;;;;;;5004830;28;20727;-40
2022/11/07 13:05:51;;;;;;;1.80;0.65;;;19.40;70.80;;;;;;5004250;28;20073;-40
2022/11/07 13:09:06;;;;;;;0.82;0.55;;;19.50;70.80;;;;;;5023615;28;20088;-40